Terminal Aerodrome Forecast
Issued by NWS Sterling, VA

Current Version | Previous Version | Graphics & Text | Print | Product List | Glossary On
Versions: 1 2 3 4 5 6 7 8 9 10 11 12 13 14 15 16 17 18 19 20 21 22 23
000
FTUS41 KLWX 240200 AAA
TAFDCA
TAF AMD
KDCA 240238Z 2403/2424 12006KT 4SM RA OVC012 WS020/17040KT
     FM240500 13010KT 2SM RA BR OVC010 WS020/16040KT
     FM240700 14014G19KT 2SM RA BR OVC008
     FM240900 17014KT 3SM -RA OVC003
     FM241100 19012KT P6SM OVC006
     FM241500 19013G20KT P6SM BKN040
     FM241800 20015G25KT P6SM SCT060=

USA.gov is the U.S. government's official web portal to all federal, state and local government web resources and services.